Barry, Texas
Current Conditions -  °F | °C
As of 12:53 PM on Friday 31 Oct 2014 (Local Time) from KCRS Reporting Station
Clear Clear  
Wind Chill: 67°   Ceiling: Unl
Heat Index: 67°   Visibility: 10mi
Dew Point: 42°   Wind: 15mph
Humidity: 40%   Direction: 340°NNW
Pressure: 30.31"   Gusts: NA
Location:  32.1°N, 96.64°W
Report Text: KCRS 311753Z AUTO 34013KT 10SM CLR 19/06 A3031 RMK AO2 RAE44 SLP259 P0000 60000 T01940056 10194 20128 50008
Loading
Personal Weather Stations






























Interactive Weather Map
Tropical Storm Tracking
New forecast layout! Learn more

10-Day Weather Forecast

Advertisements
Track Severe Weather on mobile